Time;durP1;ratioP1;P1;durP2;ratioP2;P2;SDS_P1;SDS_P2;PMS_P1;PMS_P2;Temp;Humidity;BMP_temperature;BMP_pressure;BME280_temperature;BME280_humidity;BME280_pressure;Samples;Min_cycle;Max_cycle;Signal;HPM_P1;HPM_P2
2023/07/24 00:00:48;;;;;;;96.80;73.83;;;19.80;99.90;;;;;;5119727;28;20174;-87
2023/07/24 00:03:14;;;;;;;94.23;73.20;;;19.90;99.90;;;;;;5101866;28;20173;-87
2023/07/24 00:05:39;;;;;;;92.63;63.67;;;19.90;99.90;;;;;;5118805;28;20164;-87
2023/07/24 00:08:06;;;;;;;94.97;73.73;;;19.90;99.90;;;;;;5101380;28;20217;-86
2023/07/24 00:10:32;;;;;;;97.03;78.37;;;19.90;99.90;;;;;;5120386;28;20157;-87
2023/07/24 00:12:58;;;;;;;95.10;74.97;;;19.90;99.90;;;;;;5118884;28;20404;-87
2023/07/24 00:15:23;;;;;;;98.50;85.67;;;19.80;99.90;;;;;;5118935;28;20159;-87
2023/07/24 00:17:49;;;;;;;96.00;80.23;;;19.70;99.90;;;;;;5099888;28;20164;-86
2023/07/24 00:20:15;;;;;;;97.03;76.93;;;19.70;99.90;;;;;;5118209;28;20173;-87
2023/07/24 00:22:40;;;;;;;96.20;76.87;;;19.60;99.90;;;;;;5117484;28;20167;-87
2023/07/24 00:25:06;;;;;;;96.60;80.07;;;19.60;99.90;;;;;;5099766;28;20263;-87
2023/07/24 00:27:32;;;;;;;98.27;84.73;;;19.60;99.90;;;;;;5119825;28;20188;-87
2023/07/24 00:29:58;;;;;;;94.80;78.27;;;19.60;99.90;;;;;;5100294;28;20497;-87
2023/07/24 00:32:23;;;;;;;100.50;89.20;;;19.60;99.90;;;;;;5118990;28;20226;-87
2023/07/24 00:34:49;;;;;;;99.47;84.57;;;19.60;99.90;;;;;;5119343;28;20504;-87
2023/07/24 00:37:15;;;;;;;96.60;81.33;;;19.60;99.90;;;;;;5100295;28;20215;-87
2023/07/24 00:39:41;;;;;;;99.27;87.47;;;19.60;99.90;;;;;;5118703;28;20424;-87
2023/07/24 00:42:07;;;;;;;99.57;87.37;;;19.60;99.90;;;;;;5118330;28;20413;-87
2023/07/24 00:44:32;;;;;;;104.00;92.73;;;19.60;99.90;;;;;;5118061;28;20166;-87
2023/07/24 00:46:58;;;;;;;98.93;80.87;;;19.60;99.90;;;;;;5117703;28;20170;-87
2023/07/24 00:49:24;;;;;;;99.13;85.53;;;19.60;99.90;;;;;;5117676;28;20188;-87
2023/07/24 00:51:50;;;;;;;102.57;84.47;;;19.50;99.90;;;;;;5098917;28;20225;-86
2023/07/24 00:54:17;;;;;;;99.13;83.53;;;19.50;99.90;;;;;;5117972;28;20891;-86
2023/07/24 00:56:44;;;;;;;101.70;85.93;;;19.50;99.90;;;;;;5100338;28;20174;-86
2023/07/24 00:59:10;;;;;;;103.30;89.57;;;19.50;99.90;;;;;;5118305;28;20500;-86
2023/07/24 01:01:37;;;;;;;99.43;85.93;;;19.50;99.90;;;;;;5118178;28;20940;-86
2023/07/24 01:04:05;;;;;;;101.37;87.50;;;19.50;99.90;;;;;;5117939;28;20191;-86
2023/07/24 01:06:31;;;;;;;98.67;80.30;;;19.50;99.90;;;;;;5117802;28;20426;-87
2023/07/24 01:08:57;;;;;;;100.23;84.07;;;19.40;99.90;;;;;;5099152;28;20464;-86
2023/07/24 01:11:36;;;;;;;100.00;81.20;;;19.50;99.90;;;;;;5117087;28;20189;-85
2023/07/24 01:14:31;;;;;;;97.40;77.87;;;19.40;99.90;;;;;;5099377;28;20161;-86
2023/07/24 01:16:59;;;;;;;95.83;75.00;;;19.50;99.90;;;;;;5117210;28;20397;-86
2023/07/24 01:19:42;;;;;;;99.60;84.50;;;19.40;99.90;;;;;;5098490;28;20420;-86
2023/07/24 01:22:27;;;;;;;108.30;92.53;;;19.40;99.90;;;;;;5117239;28;20385;-86
2023/07/24 01:25:10;;;;;;;102.57;78.13;;;19.40;99.90;;;;;;5116999;28;20825;-86
2023/07/24 01:27:35;;;;;;;107.70;88.87;;;19.40;99.90;;;;;;5117086;28;20429;-86
2023/07/24 01:30:01;;;;;;;104.27;79.30;;;19.50;99.90;;;;;;5117343;28;20417;-86
2023/07/24 01:32:27;;;;;;;96.67;75.73;;;19.50;99.90;;;;;;5098701;28;20168;-86
2023/07/24 01:34:54;;;;;;;93.13;69.40;;;19.50;99.90;;;;;;5120133;28;20755;-86
2023/07/24 01:37:22;;;;;;;97.33;68.77;;;19.40;99.90;;;;;;5104485;28;20166;-87
2023/07/24 01:39:48;;;;;;;102.97;76.50;;;19.40;99.90;;;;;;5122224;28;20424;-87
2023/07/24 01:42:14;;;;;;;95.93;75.07;;;19.30;99.90;;;;;;5103062;28;20805;-87
2023/07/24 01:44:40;;;;;;;97.60;77.17;;;19.20;99.90;;;;;;5121072;28;20401;-87
2023/07/24 01:47:06;;;;;;;97.93;81.63;;;19.20;99.90;;;;;;5103301;28;20402;-87
2023/07/24 01:49:31;;;;;;;101.47;87.00;;;19.20;99.90;;;;;;5102588;28;20214;-87
2023/07/24 01:51:57;;;;;;;98.47;83.83;;;19.20;99.90;;;;;;5103493;28;20168;-87
2023/07/24 01:54:23;;;;;;;99.00;85.13;;;19.10;99.90;;;;;;5120452;28;20188;-87
2023/07/24 01:56:49;;;;;;;98.10;79.67;;;19.10;99.90;;;;;;5121639;28;20488;-87
2023/07/24 01:59:14;;;;;;;99.50;84.47;;;19.10;99.90;;;;;;5103185;28;20435;-87
2023/07/24 02:01:41;;;;;;;99.10;87.10;;;19.10;99.90;;;;;;5103231;28;20202;-87
2023/07/24 02:04:07;;;;;;;101.97;83.67;;;19.10;99.90;;;;;;5103002;28;20170;-86
2023/07/24 02:06:32;;;;;;;102.37;90.20;;;19.10;99.90;;;;;;5167578;22;20486;-80
2023/07/24 02:08:58;;;;;;;101.03;84.57;;;19.30;99.90;;;;;;5078101;28;20255;-78
2023/07/24 02:11:24;;;;;;;101.17;86.57;;;19.20;99.90;;;;;;5078342;28;20162;-77
2023/07/24 02:13:49;;;;;;;107.20;95.70;;;19.20;99.90;;;;;;5076964;28;20214;-78
2023/07/24 02:16:15;;;;;;;107.30;96.03;;;19.20;99.90;;;;;;5077017;28;20164;-77
2023/07/24 02:18:42;;;;;;;108.87;97.27;;;19.30;99.90;;;;;;5076794;28;20525;-77
2023/07/24 02:21:09;;;;;;;98.90;84.63;;;19.20;99.90;;;;;;5076492;28;20195;-77
2023/07/24 02:23:35;;;;;;;101.30;89.87;;;19.20;99.90;;;;;;5076542;28;20874;-77
2023/07/24 02:26:01;;;;;;;101.57;90.13;;;19.20;99.90;;;;;;5076547;28;20832;-77
2023/07/24 02:28:26;;;;;;;96.67;82.67;;;19.20;99.90;;;;;;5076307;28;20493;-77
2023/07/24 02:30:55;;;;;;;97.50;84.27;;;19.20;99.90;;;;;;5076470;28;20434;-77
2023/07/24 02:33:22;;;;;;;98.60;85.07;;;19.20;99.90;;;;;;5076452;28;20161;-77
2023/07/24 02:35:52;;;;;;;96.27;82.90;;;19.10;99.90;;;;;;5076654;28;20412;-77
2023/07/24 02:38:18;;;;;;;99.97;88.63;;;19.10;99.90;;;;;;5076751;28;20426;-77
2023/07/24 02:40:44;;;;;;;100.03;88.97;;;19.20;99.90;;;;;;5076496;28;20410;-78
2023/07/24 02:43:09;;;;;;;100.93;89.87;;;19.20;99.90;;;;;;5077090;28;20171;-77
2023/07/24 02:45:39;;;;;;;110.97;99.27;;;19.20;99.90;;;;;;5076430;28;20398;-78
2023/07/24 02:48:05;;;;;;;98.87;82.67;;;19.20;99.90;;;;;;5076116;28;20271;-78
2023/07/24 02:50:30;;;;;;;101.50;90.40;;;19.20;99.90;;;;;;5076534;28;20406;-78
2023/07/24 02:52:56;;;;;;;99.60;87.73;;;19.10;99.90;;;;;;5076257;28;20770;-78
2023/07/24 02:55:22;;;;;;;102.67;91.67;;;19.10;99.90;;;;;;5076138;28;20222;-78
2023/07/24 02:57:47;;;;;;;98.67;87.53;;;19.00;99.90;;;;;;5075898;28;20164;-78
2023/07/24 03:00:13;;;;;;;103.13;86.87;;;19.00;99.90;;;;;;5076099;28;20164;-78
2023/07/24 03:02:39;;;;;;;106.33;95.13;;;19.00;99.90;;;;;;5075905;28;20164;-78
2023/07/24 03:05:05;;;;;;;100.67;89.67;;;19.00;99.90;;;;;;5076380;28;20407;-78
2023/07/24 03:07:31;;;;;;;104.47;93.33;;;19.10;99.90;;;;;;5075686;28;20194;-78
2023/07/24 03:09:57;;;;;;;100.13;89.20;;;19.10;99.90;;;;;;5076252;28;20921;-78
2023/07/24 03:12:23;;;;;;;97.60;82.80;;;19.00;99.90;;;;;;5076055;28;20406;-78
2023/07/24 03:14:48;;;;;;;100.03;89.17;;;19.00;99.90;;;;;;5075763;28;20661;-78
2023/07/24 03:17:14;;;;;;;103.47;92.40;;;19.00;99.90;;;;;;5075941;28;20165;-78
2023/07/24 03:19:41;;;;;;;103.27;92.07;;;19.00;99.90;;;;;;5076031;28;20180;-78
2023/07/24 03:22:07;;;;;;;97.93;86.53;;;19.00;99.90;;;;;;5076695;28;20174;-78
2023/07/24 03:24:33;;;;;;;105.73;94.70;;;19.00;99.90;;;;;;5076865;28;20403;-78
2023/07/24 03:27:00;;;;;;;104.83;93.50;;;18.90;99.90;;;;;;5076288;28;20530;-78
2023/07/24 03:29:26;;;;;;;102.00;91.00;;;19.00;99.90;;;;;;5076033;28;20459;-78
2023/07/24 03:31:52;;;;;;;110.33;98.93;;;18.90;99.90;;;;;;5076298;28;20391;-78
2023/07/24 03:34:17;;;;;;;109.10;97.70;;;19.00;99.90;;;;;;5075897;28;20402;-78
2023/07/24 03:36:43;;;;;;;101.07;85.50;;;18.90;99.90;;;;;;5076278;28;20215;-78
2023/07/24 03:39:11;;;;;;;106.53;94.90;;;18.90;99.90;;;;;;5076029;28;20266;-78
2023/07/24 03:41:38;;;;;;;111.33;100.00;;;19.00;99.90;;;;;;5076251;28;20180;-78
2023/07/24 03:44:04;;;;;;;110.07;98.70;;;19.00;99.90;;;;;;5075996;28;20396;-78
2023/07/24 03:46:32;;;;;;;118.47;106.67;;;19.00;99.90;;;;;;5075646;28;20498;-79
2023/07/24 03:49:13;;;;;;;109.00;97.50;;;19.00;99.90;;;;;;5074439;28;20459;-78
2023/07/24 03:51:38;;;;;;;102.73;91.83;;;19.00;99.90;;;;;;5076204;28;20387;-79
2023/07/24 03:54:04;;;;;;;104.60;92.40;;;19.00;99.90;;;;;;5075049;28;20405;-78
2023/07/24 03:56:30;;;;;;;100.20;87.33;;;19.00;99.90;;;;;;5074764;28;20164;-78
2023/07/24 03:58:55;;;;;;;101.30;90.30;;;18.90;99.90;;;;;;5075371;28;20198;-78
2023/07/24 04:01:21;;;;;;;99.40;86.50;;;18.90;99.90;;;;;;5075883;28;20182;-78
2023/07/24 04:03:47;;;;;;;99.17;84.83;;;18.80;99.90;;;;;;5075951;28;20252;-78
2023/07/24 04:06:12;;;;;;;97.40;81.77;;;18.90;99.90;;;;;;5075458;28;20239;-78
2023/07/24 04:08:38;;;;;;;103.73;92.73;;;18.90;99.90;;;;;;5075434;28;20672;-78
2023/07/24 04:11:04;;;;;;;111.60;100.30;;;18.90;99.90;;;;;;5073912;28;20213;-78
2023/07/24 04:13:30;;;;;;;105.67;93.60;;;18.90;99.90;;;;;;5076134;28;20225;-79
2023/07/24 04:15:57;;;;;;;104.50;93.37;;;18.90;99.90;;;;;;5075683;28;20858;-78
2023/07/24 04:18:23;;;;;;;99.77;88.00;;;18.80;99.90;;;;;;5075475;28;20184;-78
2023/07/24 04:20:48;;;;;;;99.80;88.53;;;18.80;99.90;;;;;;5076093;28;20409;-78
2023/07/24 04:23:14;;;;;;;101.83;90.90;;;18.80;99.90;;;;;;5074990;28;20160;-78
2023/07/24 04:25:39;;;;;;;103.77;92.67;;;18.80;99.90;;;;;;5075029;28;20173;-78
2023/07/24 04:28:05;;;;;;;102.67;91.67;;;18.90;99.90;;;;;;5075143;28;20196;-78
2023/07/24 04:30:34;;;;;;;105.40;94.10;;;18.80;99.90;;;;;;5075150;28;20157;-78
2023/07/24 04:32:59;;;;;;;125.40;113.07;;;18.90;99.90;;;;;;5075002;28;20534;-78
2023/07/24 04:35:27;;;;;;;108.17;95.90;;;19.00;99.90;;;;;;5074555;28;20403;-78
2023/07/24 04:37:52;;;;;;;97.70;86.97;;;18.90;99.90;;;;;;5074907;28;20169;-78
2023/07/24 04:40:18;;;;;;;101.17;87.23;;;18.90;99.90;;;;;;5074710;28;20462;-78
2023/07/24 04:42:44;;;;;;;111.70;100.07;;;18.90;99.90;;;;;;5074870;28;20156;-78
2023/07/24 04:45:09;;;;;;;117.00;104.90;;;19.00;99.90;;;;;;5075521;28;20245;-78
2023/07/24 04:47:36;;;;;;;123.20;111.40;;;19.00;99.90;;;;;;5074642;28;20190;-78
2023/07/24 04:50:02;;;;;;;133.03;120.40;;;19.00;99.90;;;;;;5073124;28;20431;-78
2023/07/24 04:52:28;;;;;;;113.23;101.63;;;19.10;99.90;;;;;;5074823;28;20423;-78
2023/07/24 04:54:54;;;;;;;123.87;111.50;;;19.10;99.90;;;;;;5075078;28;20399;-78
2023/07/24 04:57:19;;;;;;;118.30;106.10;;;19.10;99.90;;;;;;5075040;28;20595;-78
2023/07/24 04:59:45;;;;;;;118.37;106.13;;;19.20;99.90;;;;;;5075107;28;20230;-79
2023/07/24 05:02:10;;;;;;;105.50;93.97;;;19.10;99.90;;;;;;5074785;28;20195;-79
2023/07/24 05:04:36;;;;;;;104.83;91.83;;;19.20;99.90;;;;;;5074581;28;20161;-78
2023/07/24 05:07:02;;;;;;;118.10;105.57;;;19.10;99.90;;;;;;5074669;28;20281;-79
2023/07/24 05:09:27;;;;;;;117.83;105.53;;;19.10;99.90;;;;;;5078936;28;20574;-78
2023/07/24 05:11:53;;;;;;;100.43;88.47;;;19.20;99.90;;;;;;5078765;28;20160;-78
2023/07/24 05:14:19;;;;;;;103.00;91.20;;;19.20;99.90;;;;;;5078540;28;20156;-78
2023/07/24 05:16:44;;;;;;;105.70;94.33;;;19.20;99.90;;;;;;5078730;28;20282;-78
2023/07/24 05:19:10;;;;;;;113.87;101.90;;;19.30;99.90;;;;;;5078992;28;20680;-78
2023/07/24 05:21:36;;;;;;;104.90;93.60;;;19.40;99.90;;;;;;5078704;28;20528;-78
2023/07/24 05:24:01;;;;;;;101.30;86.90;;;19.50;99.90;;;;;;5078339;28;20176;-78
2023/07/24 05:26:27;;;;;;;97.30;77.87;;;19.60;99.90;;;;;;5078174;28;20175;-78
2023/07/24 05:28:52;;;;;;;98.00;72.83;;;19.60;99.90;;;;;;5078310;28;20197;-78
2023/07/24 05:31:18;;;;;;;93.17;60.17;;;19.70;99.90;;;;;;5078035;28;20167;-78
2023/07/24 05:33:44;;;;;;;87.60;48.57;;;19.70;99.90;;;;;;5077544;28;20186;-77
2023/07/24 05:36:10;;;;;;;85.17;43.33;;;19.80;99.90;;;;;;5077013;28;20399;-77
2023/07/24 05:38:36;;;;;;;85.83;43.97;;;19.80;99.90;;;;;;5076921;28;20186;-78
2023/07/24 05:41:03;;;;;;;89.23;41.13;;;19.90;99.90;;;;;;5077355;28;20179;-77
2023/07/24 05:43:30;;;;;;;83.10;38.30;;;20.10;99.90;;;;;;5077121;28;20697;-78
2023/07/24 05:45:57;;;;;;;78.90;29.27;;;20.10;99.90;;;;;;5077072;28;20437;-78
2023/07/24 05:48:24;;;;;;;84.13;22.60;;;20.20;99.90;;;;;;5077006;28;20530;-77
2023/07/24 05:50:50;;;;;;;84.13;27.90;;;20.20;99.90;;;;;;5077493;28;20391;-78
2023/07/24 05:53:16;;;;;;;78.83;24.23;;;20.30;99.90;;;;;;5077504;28;20412;-78
2023/07/24 05:55:43;;;;;;;81.63;27.07;;;20.30;99.90;;;;;;5077609;28;20523;-78
2023/07/24 05:58:09;;;;;;;84.20;27.40;;;20.30;99.90;;;;;;5076973;28;20422;-78
2023/07/24 06:00:36;;;;;;;83.03;25.47;;;20.40;99.90;;;;;;5076834;28;20428;-78
2023/07/24 06:03:02;;;;;;;81.57;26.20;;;20.30;99.90;;;;;;5077670;28;20402;-78
2023/07/24 06:05:28;;;;;;;79.57;26.00;;;20.40;99.90;;;;;;5076595;28;20407;-78
2023/07/24 06:07:54;;;;;;;80.40;25.83;;;20.40;99.90;;;;;;5076403;28;20457;-78
2023/07/24 06:10:23;;;;;;;84.83;27.93;;;20.40;99.90;;;;;;5076717;28;20563;-78
2023/07/24 06:12:48;;;;;;;82.33;26.30;;;20.40;99.90;;;;;;5076931;28;20453;-77
2023/07/24 06:15:14;;;;;;;77.47;25.97;;;20.40;99.90;;;;;;5075118;28;20399;-77
2023/07/24 06:17:40;;;;;;;81.87;29.97;;;20.50;99.90;;;;;;5076007;28;20171;-76
2023/07/24 06:20:06;;;;;;;82.67;33.63;;;20.60;99.90;;;;;;5075732;28;20184;-77
2023/07/24 06:22:32;;;;;;;78.10;26.77;;;20.40;99.90;;;;;;5076646;28;20161;-77
2023/07/24 06:24:58;;;;;;;80.97;27.47;;;20.50;99.90;;;;;;5076255;28;20923;-78
2023/07/24 06:27:23;;;;;;;78.30;30.40;;;20.60;99.90;;;;;;5076372;28;20332;-77
2023/07/24 06:29:49;;;;;;;79.87;21.17;;;20.60;99.90;;;;;;5075248;28;20189;-78
2023/07/24 06:32:14;;;;;;;77.57;22.80;;;20.70;99.90;;;;;;5075565;28;20161;-78
2023/07/24 06:34:40;;;;;;;76.80;22.37;;;20.50;99.90;;;;;;5076504;28;20206;-78
2023/07/24 06:37:06;;;;;;;77.00;23.90;;;20.60;99.90;;;;;;5076453;28;20184;-77
2023/07/24 06:39:33;;;;;;;79.27;22.37;;;20.60;99.90;;;;;;5076487;28;20263;-78
2023/07/24 06:41:59;;;;;;;75.67;22.93;;;20.50;99.90;;;;;;5076361;28;20219;-77
2023/07/24 06:44:24;;;;;;;78.00;23.33;;;20.50;99.90;;;;;;5076388;28;20401;-77
2023/07/24 06:46:50;;;;;;;79.97;29.30;;;20.50;99.90;;;;;;5076020;28;20409;-78
2023/07/24 06:49:16;;;;;;;78.10;26.57;;;20.50;99.90;;;;;;5075856;28;20198;-78
2023/07/24 06:51:41;;;;;;;79.40;28.10;;;20.50;99.90;;;;;;5075845;28;20184;-77
2023/07/24 06:54:08;;;;;;;74.50;17.20;;;20.60;99.90;;;;;;5075761;28;20683;-77
2023/07/24 06:56:34;;;;;;;77.17;18.37;;;20.70;99.90;;;;;;5076025;28;20400;-77
2023/07/24 06:58:59;;;;;;;80.00;23.83;;;20.70;99.90;;;;;;5076024;28;20184;-77
2023/07/24 07:01:25;;;;;;;75.10;19.80;;;20.90;99.90;;;;;;5075872;28;20182;-77
2023/07/24 07:03:51;;;;;;;75.70;13.67;;;21.00;99.90;;;;;;5075622;28;20169;-77
2023/07/24 07:06:16;;;;;;;71.97;11.90;;;21.10;99.90;;;;;;5075905;28;20182;-77
2023/07/24 07:08:42;;;;;;;73.07;13.30;;;21.20;99.90;;;;;;5075827;28;20233;-78
2023/07/24 07:11:08;;;;;;;72.10;12.00;;;21.30;99.90;;;;;;5075655;28;20169;-78
2023/07/24 07:13:33;;;;;;;73.40;10.77;;;21.40;99.90;;;;;;5075730;28;20662;-78
2023/07/24 07:15:59;;;;;;;73.00;12.87;;;21.40;99.90;;;;;;5075913;28;20167;-78
2023/07/24 07:18:25;;;;;;;70.63;9.00;;;21.50;99.90;;;;;;5074229;28;20242;-77
2023/07/24 07:20:52;;;;;;;69.77;6.33;;;21.50;99.90;;;;;;5075237;28;20168;-78
2023/07/24 07:23:19;;;;;;;69.20;5.50;;;21.50;99.90;;;;;;5075456;28;20587;-78
2023/07/24 07:25:47;;;;;;;71.70;6.57;;;21.50;99.90;;;;;;5075027;28;20769;-78
2023/07/24 07:28:14;;;;;;;74.70;7.60;;;21.40;99.90;;;;;;5075129;28;20460;-77
2023/07/24 07:30:41;;;;;;;70.63;6.50;;;21.30;99.90;;;;;;5074398;28;20497;-77
2023/07/24 07:33:06;;;;;;;69.57;6.80;;;21.30;99.90;;;;;;5074837;28;20395;-77
2023/07/24 07:35:33;;;;;;;72.60;6.67;;;21.20;99.90;;;;;;5075434;28;20471;-77
2023/07/24 07:37:59;;;;;;;74.80;6.30;;;21.30;99.90;;;;;;5075161;28;20168;-77
2023/07/24 07:40:26;;;;;;;70.37;6.50;;;21.30;99.90;;;;;;5074932;28;20400;-77
2023/07/24 07:42:53;;;;;;;70.43;7.53;;;21.40;99.90;;;;;;5074683;28;20471;-77
2023/07/24 07:45:19;;;;;;;70.17;5.93;;;21.40;99.90;;;;;;5074856;28;20961;-77
2023/07/24 07:47:45;;;;;;;70.07;6.50;;;21.50;99.90;;;;;;5074683;28;20450;-77
2023/07/24 07:50:11;;;;;;;71.50;6.23;;;21.60;99.90;;;;;;5074921;28;20886;-77
2023/07/24 07:52:37;;;;;;;72.10;8.13;;;21.70;99.90;;;;;;5074875;28;20182;-77
2023/07/24 07:55:02;;;;;;;70.53;6.23;;;21.80;99.90;;;;;;5074790;28;20865;-77
2023/07/24 07:57:28;;;;;;;70.10;6.60;;;21.90;99.90;;;;;;5073418;28;20580;-77
2023/07/24 07:59:54;;;;;;;71.37;6.93;;;22.00;99.90;;;;;;5074585;28;20259;-77
2023/07/24 08:02:19;;;;;;;71.80;6.40;;;21.90;99.90;;;;;;5074700;28;20168;-77
2023/07/24 08:04:45;;;;;;;70.37;5.87;;;22.10;99.90;;;;;;5074420;28;20163;-77
2023/07/24 08:07:18;;;;;;;70.57;7.07;;;22.20;99.90;;;;;;5255953;22;20222;-83
2023/07/24 08:09:56;;;;;;;70.93;6.70;;;22.20;99.90;;;;;;5083322;28;20205;-84
2023/07/24 08:12:54;;;;;;;70.50;6.00;;;22.30;97.80;;;;;;5080416;28;20405;-83
2023/07/24 08:15:20;;;;;;;70.07;5.63;;;22.30;93.80;;;;;;5092398;28;20410;-84
2023/07/24 08:17:46;;;;;;;71.77;5.50;;;22.30;94.80;;;;;;5080284;28;20420;-83
2023/07/24 08:20:30;;;;;;;73.27;6.40;;;22.30;93.40;;;;;;5097849;28;20185;-84
2023/07/24 08:22:57;;;;;;;71.70;6.20;;;22.20;91.80;;;;;;5097782;28;20366;-83
2023/07/24 08:25:23;;;;;;;71.17;6.50;;;22.20;94.30;;;;;;5098579;28;20393;-83
2023/07/24 08:28:02;;;;;;;73.00;7.57;;;22.10;92.10;;;;;;5079859;28;20440;-83
2023/07/24 08:30:38;;;;;;;70.27;7.83;;;22.00;90.30;;;;;;5098936;28;20393;-83
2023/07/24 08:33:04;;;;;;;70.90;8.30;;;22.10;88.00;;;;;;5099017;28;20389;-83
2023/07/24 08:35:46;;;;;;;72.47;6.80;;;22.10;88.10;;;;;;5099485;28;20491;-84
2023/07/24 08:38:12;;;;;;;71.00;6.57;;;22.20;90.80;;;;;;5078812;28;20190;-83
2023/07/24 08:40:47;;;;;;;71.47;6.07;;;22.40;93.60;;;;;;5097282;28;20393;-83
2023/07/24 08:43:13;;;;;;;69.50;7.10;;;22.40;91.50;;;;;;5079247;28;20401;-83
2023/07/24 08:45:39;;;;;;;72.10;9.60;;;22.50;90.40;;;;;;5097245;28;20471;-83
2023/07/24 08:48:05;;;;;;;73.70;11.90;;;22.70;71.00;;;;;;5097267;28;20535;-82
2023/07/24 08:50:47;;;;;;;74.40;14.97;;;22.80;63.90;;;;;;5079852;28;20814;-83
2023/07/24 08:53:14;;;;;;;73.47;13.93;;;22.90;60.60;;;;;;5097103;28;20235;-83
2023/07/24 08:55:51;;;;;;;72.67;10.10;;;23.00;53.00;;;;;;5097669;28;20398;-83
2023/07/24 08:58:17;;;;;;;70.47;7.10;;;22.90;45.80;;;;;;5096675;28;20425;-83
2023/07/24 09:00:42;;;;;;;70.90;6.20;;;22.90;37.90;;;;;;5079077;28;20412;-83
2023/07/24 09:03:08;;;;;;;71.93;11.87;;;22.80;41.10;;;;;;5097979;28;20641;-83
2023/07/24 09:05:34;;;;;;;75.10;9.43;;;22.70;56.90;;;;;;5097377;28;20611;-83
2023/07/24 09:08:00;;;;;;;70.07;7.70;;;22.90;55.60;;;;;;5096903;28;20276;-83
2023/07/24 09:10:26;;;;;;;70.20;7.20;;;23.00;48.50;;;;;;5079075;28;20700;-83
2023/07/24 09:12:52;;;;;;;71.90;6.70;;;23.00;43.20;;;;;;5096726;28;20162;-83
2023/07/24 09:15:17;;;;;;;70.20;8.60;;;23.20;40.40;;;;;;5097312;28;20762;-82
2023/07/24 09:17:53;;;;;;;70.60;9.50;;;23.20;19.60;;;;;;5078725;28;20662;-82
2023/07/24 09:20:20;;;;;;;72.53;11.87;;;23.20;18.70;;;;;;5096795;28;20163;-83
2023/07/24 09:22:53;;;;;;;73.97;18.03;;;23.20;21.20;;;;;;5096474;28;20398;-83
2023/07/24 09:25:31;;;;;;;74.33;18.90;;;23.30;19.70;;;;;;5097102;28;20519;-82
2023/07/24 09:28:00;;;;;;;73.27;14.83;;;23.30;22.30;;;;;;5078203;28;20823;-82
2023/07/24 09:30:26;;;;;;;71.73;12.20;;;23.20;18.30;;;;;;5096913;28;20394;-83
2023/07/24 09:32:59;;;;;;;72.37;13.73;;;23.10;26.60;;;;;;5078405;28;20402;-82
2023/07/24 09:35:27;;;;;;;73.10;11.40;;;22.90;21.40;;;;;;5096438;28;20433;-82
2023/07/24 09:38:05;;;;;;;70.83;12.33;;;22.90;30.80;;;;;;5096729;28;20786;-82
2023/07/24 09:40:44;;;;;;;73.77;16.60;;;22.90;28.40;;;;;;5095902;28;20400;-82
2023/07/24 09:43:24;;;;;;;74.63;18.20;;;23.00;21.90;;;;;;5077512;28;20421;-82
2023/07/24 09:45:51;;;;;;;75.10;20.00;;;23.00;17.60;;;;;;5096675;28;20431;-82
2023/07/24 09:48:18;;;;;;;74.67;19.80;;;23.10;23.10;;;;;;5095792;28;20453;-83
2023/07/24 09:50:52;;;;;;;77.27;25.57;;;23.30;22.40;;;;;;5096372;28;20386;-82
2023/07/24 09:53:37;;;;;;;75.40;21.50;;;23.40;17.40;;;;;;5077652;28;20397;-82
2023/07/24 09:56:08;;;;;;;73.97;13.33;;;23.50;17.40;;;;;;5100139;28;20394;-83
2023/07/24 09:58:38;;;;;;;81.93;36.30;;;23.50;19.50;;;;;;5100723;28;20474;-83
2023/07/24 10:01:08;;;;;;;81.07;35.07;;;23.60;12.70;;;;;;5101219;28;20975;-83
2023/07/24 10:03:39;;;;;;;80.40;31.27;;;23.70;5.50;;;;;;5100490;28;20382;-83
2023/07/24 10:06:10;;;;;;;79.23;32.03;;;23.70;11.00;;;;;;5101708;28;20386;-83
2023/07/24 10:08:39;;;;;;;77.07;25.60;;;23.70;13.20;;;;;;5101144;28;20463;-83
2023/07/24 10:11:05;;;;;;;74.80;17.27;;;24.00;2.70;;;;;;5101285;28;20807;-83
2023/07/24 10:13:36;;;;;;;76.00;23.27;;;24.20;1.00;;;;;;5101307;28;20401;-83
2023/07/24 10:16:03;;;;;;;77.57;21.50;;;24.50;1.00;;;;;;5100324;28;20269;-83
2023/07/24 10:18:32;;;;;;;72.87;10.40;;;24.70;1.00;;;;;;5081388;28;20421;-83
2023/07/24 10:21:06;;;;;;;72.27;7.67;;;24.80;1.00;;;;;;5099747;28;20815;-83
2023/07/24 10:23:35;;;;;;;73.80;6.90;;;24.90;1.00;;;;;;5100524;28;20451;-83
2023/07/24 10:26:05;;;;;;;72.97;8.60;;;25.10;1.00;;;;;;5083127;28;20406;-83
2023/07/24 10:28:33;;;;;;;71.27;7.97;;;25.20;1.00;;;;;;5080746;28;20455;-82
2023/07/24 10:30:58;;;;;;;71.43;8.33;;;25.20;1.00;;;;;;5099943;28;20404;-83
2023/07/24 10:33:24;;;;;;;70.60;7.87;;;25.30;1.00;;;;;;5099523;28;20986;-83
2023/07/24 10:36:04;;;;;;;70.17;6.13;;;25.20;1.00;;;;;;5099537;28;20163;-83
2023/07/24 10:38:35;;;;;;;71.67;7.20;;;25.30;1.00;;;;;;5066047;28;20193;-82
2023/07/24 10:41:05;;;;;;;70.90;6.33;;;24.80;1.00;;;;;;5100126;28;20766;-83
2023/07/24 10:43:42;;;;;;;73.20;5.90;;;24.70;1.00;;;;;;5099460;28;20478;-83
2023/07/24 10:46:07;;;;;;;71.80;7.70;;;24.20;1.00;;;;;;5099696;28;20489;-83
2023/07/24 10:48:34;;;;;;;69.97;5.43;;;24.20;1.00;;;;;;5098628;28;20472;-83
2023/07/24 10:51:08;;;;;;;69.77;7.07;;;24.00;1.00;;;;;;5099217;28;20175;-83
2023/07/24 10:53:38;;;;;;;71.60;8.53;;;23.70;1.00;;;;;;5081254;28;20402;-83
2023/07/24 10:56:07;;;;;;;70.97;8.70;;;23.60;1.00;;;;;;5080909;28;20404;-83
2023/07/24 10:58:35;;;;;;;71.60;9.60;;;23.50;1.00;;;;;;5099198;28;20425;-83
2023/07/24 11:01:04;;;;;;;71.17;9.43;;;23.50;1.00;;;;;;5098790;28;20429;-83
2023/07/24 11:03:31;;;;;;;70.87;10.37;;;23.50;1.00;;;;;;5080619;28;20410;-83
2023/07/24 11:05:58;;;;;;;74.47;15.27;;;23.90;1.00;;;;;;5080729;28;20481;-83
2023/07/24 11:08:24;;;;;;;71.13;9.43;;;24.40;1.00;;;;;;5099281;28;20469;-83
2023/07/24 11:10:52;;;;;;;72.30;7.70;;;24.70;1.00;;;;;;5079772;28;20397;-82
2023/07/24 11:13:20;;;;;;;70.60;7.50;;;25.10;1.00;;;;;;5081399;28;20482;-83
2023/07/24 11:15:46;;;;;;;71.30;9.00;;;25.60;1.00;;;;;;5101030;28;20424;-83
2023/07/24 11:18:13;;;;;;;72.20;7.10;;;25.80;1.00;;;;;;5099169;28;20469;-83
2023/07/24 11:20:50;;;;;;;72.10;6.93;;;25.60;1.00;;;;;;5098407;28;20454;-84
2023/07/24 11:23:17;;;;;;;71.47;5.77;;;25.30;1.00;;;;;;5099019;28;20893;-83
2023/07/24 11:25:54;;;;;;;72.67;6.90;;;25.10;1.00;;;;;;5098392;28;20400;-82
2023/07/24 11:28:20;;;;;;;70.87;5.60;;;25.60;1.00;;;;;;5098811;28;20455;-83
2023/07/24 11:30:46;;;;;;;69.90;4.47;;;26.20;1.00;;;;;;5079976;28;20904;-83
2023/07/24 11:33:14;;;;;;;69.13;3.93;;;26.60;1.00;;;;;;5080343;28;20411;-83
2023/07/24 11:35:41;;;;;;;71.00;4.47;;;26.60;1.00;;;;;;5099145;28;20159;-83
2023/07/24 11:38:09;;;;;;;70.47;5.03;;;26.50;1.00;;;;;;5079995;28;20478;-84
2023/07/24 11:40:43;;;;;;;80.77;15.40;;;26.70;1.00;;;;;;5080961;28;20397;-81
2023/07/24 11:43:17;;;;;;;73.90;7.43;;;26.60;1.00;;;;;;5099858;28;20385;-81
2023/07/24 11:45:44;;;;;;;79.03;29.77;;;25.10;1.00;;;;;;5079940;28;20417;-80
2023/07/24 11:48:11;;;;;;;80.30;28.90;;;23.90;15.90;;;;;;5096575;28;20450;-80
2023/07/24 11:50:48;;;;;;;75.70;18.57;;;23.20;52.30;;;;;;5098132;28;20455;-81
2023/07/24 11:53:25;;;;;;;70.17;6.20;;;22.70;89.70;;;;;;5079098;28;20455;-81
2023/07/24 11:55:52;;;;;;;75.40;7.10;;;22.40;95.70;;;;;;5078481;28;20435;-81
2023/07/24 11:58:20;;;;;;;80.60;21.07;;;22.10;99.90;;;;;;5079528;28;20433;-81
2023/07/24 12:00:47;;;;;;;68.97;9.37;;;21.90;99.90;;;;;;5098841;28;20417;-81
2023/07/24 12:03:14;;;;;;;74.97;11.40;;;21.60;99.90;;;;;;5097798;28;20810;-80
2023/07/24 12:05:44;;;;;;;81.27;40.07;;;21.50;99.90;;;;;;5078943;28;20393;-80
2023/07/24 12:08:11;;;;;;;81.33;39.57;;;21.50;99.90;;;;;;5096333;28;20457;-80
2023/07/24 12:10:40;;;;;;;77.87;32.50;;;21.80;99.90;;;;;;5097020;28;20397;-80
2023/07/24 12:13:07;;;;;;;79.23;29.53;;;22.20;99.90;;;;;;5096700;28;20856;-80
2023/07/24 12:15:37;;;;;;;75.57;27.00;;;22.50;99.90;;;;;;5097189;28;20813;-80
2023/07/24 12:18:04;;;;;;;80.70;38.87;;;22.60;99.90;;;;;;5097733;28;20396;-81
2023/07/24 12:20:30;;;;;;;89.93;44.63;;;22.50;99.90;;;;;;5097917;28;20401;-81
2023/07/24 12:22:56;;;;;;;80.00;31.23;;;22.30;99.90;;;;;;5079482;28;20420;-81
2023/07/24 12:25:22;;;;;;;78.00;27.70;;;22.00;99.90;;;;;;5096555;28;20499;-79
2023/07/24 12:27:48;;;;;;;75.20;25.23;;;21.90;99.90;;;;;;5096241;28;20976;-80
2023/07/24 12:30:14;;;;;;;79.40;27.07;;;21.70;99.90;;;;;;5097866;28;20224;-80